EDT,Max TemperatureF,Mean TemperatureF,Min TemperatureF,Max Dew PointF,MeanDew PointF,Min DewpointF,Max Humidity, Mean Humidity, Min Humidity, Max Sea Level PressureIn, Mean Sea Level PressureIn, Min Sea Level PressureIn, Max VisibilityMiles, Mean VisibilityMiles, Min VisibilityMiles, Max Wind SpeedMPH, Mean Wind SpeedMPH, Max Gust SpeedMPH,PrecipitationIn, CloudCover, Events, WindDirDegrees
2012-5-1,82,76,70,66,66,65,84,71,60,30.21,30.16,30.11,10,9,2,22,13,30,0.00,3,,206
2012-5-2,89,79,69,68,66,62,90,70,40,30.16,30.11,30.08,10,10,8,17,11,24,0.00,0,,230
2012-5-3,90,81,72,71,67,66,87,69,49,30.15,30.09,30.05,10,10,8,12,7,,0.00,0,,240
2012-5-4,91,80,71,69,67,63,87,68,42,30.06,30.01,29.94,10,9,7,16,9,,0.00,0,,239
2012-5-5,91,82,73,70,67,62,82,69,39,29.93,29.88,29.81,10,9,7,17,8,20,0.00,1,,244
2012-5-6,78,72,66,70,66,61,88,81,71,30.03,29.89,29.81,10,9,7,18,12,28,0.09,7,Rain,26
2012-5-7,73,68,64,63,58,52,88,69,48,30.07,30.03,29.98,10,10,9,21,16,26,0.00,2,,65
2012-5-8,81,73,66,61,57,53,75,58,43,30.06,30.00,29.94,10,10,10,14,7,21,0.00,1,,157
2012-5-9,84,75,66,68,64,59,84,68,44,29.93,29.76,29.63,10,10,5,16,8,24,0.18,3,Rain,207
2012-5-10,79,70,64,61,54,43,83,61,31,29.96,29.75,29.63,10,10,2,20,14,25,0.00,4,,313
2012-5-11,75,68,63,56,51,45,68,54,35,30.26,30.11,29.96,10,10,10,16,7,,0.00,1,,19
2012-5-12,77,70,64,57,48,35,75,47,23,30.37,30.32,30.27,10,10,10,10,4,,0.00,0,,129
2012-5-13,78,72,66,57,54,50,65,54,42,30.32,30.26,30.20,10,10,8,16,8,23,0.00,0,,158
2012-5-14,80,74,70,66,60,56,76,62,50,30.19,30.11,30.04,10,10,3,18,9,25,0.00,3,Rain,160
2012-5-15,82,76,71,70,68,64,94,75,58,30.04,30.01,29.98,10,9,2,16,10,24,0.31,5,Rain,180
2012-5-16,84,78,71,72,68,65,89,79,53,30.01,29.97,29.92,10,9,2,16,8,24,0.19,3,Rain,198
2012-5-17,77,73,69,72,67,63,94,82,71,30.00,29.96,29.91,10,9,0,21,8,29,0.28,6,Fog,47
2012-5-18,72,68,64,63,59,55,84,71,64,30.05,30.00,29.95,10,10,5,23,17,31,0.05,6,Rain,15
2012-5-19,73,68,62,60,55,37,82,66,27,30.10,30.06,30.01,10,10,10,21,16,31,0.00,3,,20
2012-5-20,70,68,66,63,55,46,78,65,42,30.09,30.06,30.03,10,10,10,13,11,,0.00,8,,16
2012-5-21,,,,,,,,,,30.05,29.98,29.91,,,,,,,0.00,,,-1
2012-5-22,,,,,,,,,,29.92,29.90,29.85,,,,,,,0.00,,,-1
2012-5-23,,,,,,,,,,30.02,29.94,29.88,,,,,,,0.00,,,-1
2012-5-24,,,,,,,,,,30.09,30.05,30.00,,,,,,,0.00,,,-1
2012-5-25,,,,,,,,,,30.13,30.09,30.06,,,,,,,0.00,,,-1
2012-5-26,,,,,,,,,,30.12,30.09,30.05,,,,,,,0.00,,,-1
2012-5-27,,,,,,,,,,30.15,30.12,30.07,,,,,,,0.00,,,-1
2012-5-28,,,,,,,,,,30.13,30.09,30.06,,,,,,,0.00,,,-1
2012-5-29,84,80,75,73,73,72,94,86,79,30.07,29.99,29.91,10,8,0,20,11,28,0.02,4,Fog-Rain,198
2012-5-30,80,76,73,76,72,67,100,88,76,29.89,29.63,29.48,10,6,0,38,13,54,1.24,6,Fog-Rain,228
2012-5-31,90,78,66,72,67,64,93,70,45,29.94,29.87,29.80,10,9,2,14,9,22,0.00,1,,240